sensor_id;sensor_type;location;lat;lon;timestamp;P1;durP1;ratioP1;P2;durP2;ratioP2
70592;SDS011;58294;42.988;20.338;2022-10-16T00:00:36;26.20;;;18.15;;
70592;SDS011;58294;42.988;20.338;2022-10-16T00:03:03;28.33;;;20.35;;
70592;SDS011;58294;42.988;20.338;2022-10-16T00:05:30;32.47;;;21.38;;
70592;SDS011;58294;42.988;20.338;2022-10-16T00:07:56;26.40;;;21.42;;
70592;SDS011;58294;42.988;20.338;2022-10-16T00:10:22;25.55;;;20.23;;
70592;SDS011;58294;42.988;20.338;2022-10-16T00:12:48;29.83;;;20.33;;
70592;SDS011;58294;42.988;20.338;2022-10-16T00:15:14;24.85;;;20.13;;
70592;SDS011;58294;42.988;20.338;2022-10-16T00:17:40;32.47;;;20.95;;
70592;SDS011;58294;42.988;20.338;2022-10-16T00:20:06;36.70;;;24.52;;
70592;SDS011;58294;42.988;20.338;2022-10-16T00:22:32;44.35;;;32.95;;
70592;SDS011;58294;42.988;20.338;2022-10-16T00:24:58;29.55;;;23.67;;
70592;SDS011;58294;42.988;20.338;2022-10-16T00:27:24;29.75;;;21.73;;
70592;SDS011;58294;42.988;20.338;2022-10-16T00:29:50;31.55;;;21.98;;
70592;SDS011;58294;42.988;20.338;2022-10-16T00:32:17;30.27;;;21.08;;
70592;SDS011;58294;42.988;20.338;2022-10-16T00:34:44;31.17;;;19.88;;
70592;SDS011;58294;42.988;20.338;2022-10-16T00:37:10;29.10;;;17.85;;
70592;SDS011;58294;42.988;20.338;2022-10-16T00:39:37;24.00;;;18.27;;
70592;SDS011;58294;42.988;20.338;2022-10-16T00:42:02;22.52;;;15.48;;
70592;SDS011;58294;42.988;20.338;2022-10-16T00:47:28;23.25;;;15.73;;
70592;SDS011;58294;42.988;20.338;2022-10-16T00:50:02;22.70;;;16.50;;
70592;SDS011;58294;42.988;20.338;2022-10-16T00:52:34;20.23;;;15.65;;
70592;SDS011;58294;42.988;20.338;2022-10-16T00:55:02;27.15;;;19.63;;
70592;SDS011;58294;42.988;20.338;2022-10-16T00:57:29;21.73;;;16.63;;
70592;SDS011;58294;42.988;20.338;2022-10-16T00:59:55;24.73;;;16.48;;
70592;SDS011;58294;42.988;20.338;2022-10-16T01:02:22;23.27;;;14.15;;
70592;SDS011;58294;42.988;20.338;2022-10-16T01:04:52;18.48;;;12.73;;
70592;SDS011;58294;42.988;20.338;2022-10-16T01:12:40;29.17;;;16.45;;
70592;SDS011;58294;42.988;20.338;2022-10-16T01:15:30;20.83;;;15.85;;
70592;SDS011;58294;42.988;20.338;2022-10-16T01:18:16;23.00;;;15.27;;
70592;SDS011;58294;42.988;20.338;2022-10-16T01:21:01;22.83;;;15.98;;
70592;SDS011;58294;42.988;20.338;2022-10-16T01:28:58;24.35;;;16.63;;
70592;SDS011;58294;42.988;20.338;2022-10-16T01:32:06;26.15;;;15.75;;
70592;SDS011;58294;42.988;20.338;2022-10-16T01:34:59;30.23;;;18.23;;
70592;SDS011;58294;42.988;20.338;2022-10-16T01:37:35;28.70;;;18.48;;
70592;SDS011;58294;42.988;20.338;2022-10-16T01:40:32;27.58;;;18.98;;
70592;SDS011;58294;42.988;20.338;2022-10-16T01:43:05;26.60;;;19.25;;
70592;SDS011;58294;42.988;20.338;2022-10-16T01:45:38;29.23;;;19.77;;
70592;SDS011;58294;42.988;20.338;2022-10-16T01:48:06;27.48;;;17.98;;
70592;SDS011;58294;42.988;20.338;2022-10-16T01:50:37;23.55;;;18.67;;
70592;SDS011;58294;42.988;20.338;2022-10-16T01:53:05;35.05;;;20.55;;
70592;SDS011;58294;42.988;20.338;2022-10-16T01:55:35;30.80;;;18.92;;
70592;SDS011;58294;42.988;20.338;2022-10-16T01:58:05;31.10;;;18.38;;
70592;SDS011;58294;42.988;20.338;2022-10-16T02:00:34;28.48;;;17.95;;
70592;SDS011;58294;42.988;20.338;2022-10-16T02:03:03;35.15;;;19.70;;
70592;SDS011;58294;42.988;20.338;2022-10-16T02:05:32;29.38;;;17.25;;
70592;SDS011;58294;42.988;20.338;2022-10-16T02:08:03;32.33;;;18.65;;
70592;SDS011;58294;42.988;20.338;2022-10-16T02:10:29;30.00;;;19.23;;
70592;SDS011;58294;42.988;20.338;2022-10-16T02:13:06;28.38;;;18.83;;
70592;SDS011;58294;42.988;20.338;2022-10-16T02:15:38;31.05;;;19.95;;
70592;SDS011;58294;42.988;20.338;2022-10-16T02:18:04;24.67;;;17.15;;
70592;SDS011;58294;42.988;20.338;2022-10-16T02:20:32;21.45;;;16.35;;
70592;SDS011;58294;42.988;20.338;2022-10-16T02:23:05;20.98;;;15.80;;
70592;SDS011;58294;42.988;20.338;2022-10-16T02:25:37;20.58;;;14.95;;
70592;SDS011;58294;42.988;20.338;2022-10-16T02:30:42;18.85;;;14.35;;
70592;SDS011;58294;42.988;20.338;2022-10-16T02:33:13;25.52;;;16.27;;
70592;SDS011;58294;42.988;20.338;2022-10-16T02:35:41;24.15;;;16.10;;
70592;SDS011;58294;42.988;20.338;2022-10-16T02:38:10;26.95;;;17.75;;
70592;SDS011;58294;42.988;20.338;2022-10-16T02:40:37;25.58;;;17.75;;
70592;SDS011;58294;42.988;20.338;2022-10-16T02:43:04;22.38;;;16.70;;
70592;SDS011;58294;42.988;20.338;2022-10-16T02:45:30;24.83;;;17.27;;
70592;SDS011;58294;42.988;20.338;2022-10-16T02:47:56;25.42;;;18.45;;
70592;SDS011;58294;42.988;20.338;2022-10-16T02:50:22;31.10;;;17.88;;
70592;SDS011;58294;42.988;20.338;2022-10-16T02:52:49;32.38;;;19.05;;
70592;SDS011;58294;42.988;20.338;2022-10-16T02:55:15;30.58;;;19.65;;
70592;SDS011;58294;42.988;20.338;2022-10-16T02:57:41;27.15;;;18.23;;
70592;SDS011;58294;42.988;20.338;2022-10-16T03:00:11;27.77;;;18.38;;
70592;SDS011;58294;42.988;20.338;2022-10-16T03:02:39;28.45;;;16.80;;
70592;SDS011;58294;42.988;20.338;2022-10-16T03:05:05;25.55;;;13.30;;
70592;SDS011;58294;42.988;20.338;2022-10-16T03:07:32;21.73;;;13.57;;
70592;SDS011;58294;42.988;20.338;2022-10-16T03:09:58;22.02;;;14.48;;
70592;SDS011;58294;42.988;20.338;2022-10-16T03:12:27;17.70;;;13.18;;
70592;SDS011;58294;42.988;20.338;2022-10-16T03:14:55;18.02;;;12.73;;
70592;SDS011;58294;42.988;20.338;2022-10-16T03:17:22;18.73;;;13.05;;
70592;SDS011;58294;42.988;20.338;2022-10-16T03:19:48;18.58;;;13.02;;
70592;SDS011;58294;42.988;20.338;2022-10-16T03:22:14;20.75;;;14.27;;
70592;SDS011;58294;42.988;20.338;2022-10-16T03:24:40;16.05;;;12.40;;
70592;SDS011;58294;42.988;20.338;2022-10-16T03:27:06;19.88;;;12.32;;
70592;SDS011;58294;42.988;20.338;2022-10-16T03:29:33;26.50;;;18.55;;
70592;SDS011;58294;42.988;20.338;2022-10-16T03:31:59;24.65;;;16.10;;
70592;SDS011;58294;42.988;20.338;2022-10-16T03:34:25;33.30;;;20.42;;
70592;SDS011;58294;42.988;20.338;2022-10-16T03:36:52;24.08;;;14.75;;
70592;SDS011;58294;42.988;20.338;2022-10-16T03:39:19;26.40;;;14.10;;
70592;SDS011;58294;42.988;20.338;2022-10-16T03:41:45;36.08;;;18.45;;
70592;SDS011;58294;42.988;20.338;2022-10-16T03:44:13;21.35;;;15.30;;
70592;SDS011;58294;42.988;20.338;2022-10-16T03:46:39;23.83;;;15.88;;
70592;SDS011;58294;42.988;20.338;2022-10-16T03:49:05;41.58;;;24.02;;
70592;SDS011;58294;42.988;20.338;2022-10-16T03:51:31;30.77;;;19.83;;
70592;SDS011;58294;42.988;20.338;2022-10-16T03:53:57;30.15;;;19.13;;
70592;SDS011;58294;42.988;20.338;2022-10-16T03:56:23;24.70;;;17.67;;
70592;SDS011;58294;42.988;20.338;2022-10-16T03:58:48;27.10;;;17.75;;
70592;SDS011;58294;42.988;20.338;2022-10-16T04:01:14;24.98;;;15.90;;
70592;SDS011;58294;42.988;20.338;2022-10-16T04:03:40;21.83;;;15.30;;
70592;SDS011;58294;42.988;20.338;2022-10-16T04:06:06;22.58;;;15.68;;
70592;SDS011;58294;42.988;20.338;2022-10-16T04:08:32;22.55;;;11.82;;
70592;SDS011;58294;42.988;20.338;2022-10-16T04:11:00;19.85;;;13.32;;
70592;SDS011;58294;42.988;20.338;2022-10-16T04:13:26;17.52;;;11.65;;
70592;SDS011;58294;42.988;20.338;2022-10-16T04:15:52;13.88;;;11.73;;
70592;SDS011;58294;42.988;20.338;2022-10-16T04:18:18;17.77;;;12.32;;
70592;SDS011;58294;42.988;20.338;2022-10-16T04:20:44;25.83;;;16.45;;
70592;SDS011;58294;42.988;20.338;2022-10-16T04:23:09;15.48;;;12.35;;
70592;SDS011;58294;42.988;20.338;2022-10-16T04:25:35;21.30;;;11.20;;
70592;SDS011;58294;42.988;20.338;2022-10-16T04:28:01;27.40;;;12.25;;
70592;SDS011;58294;42.988;20.338;2022-10-16T04:30:27;23.95;;;13.55;;
70592;SDS011;58294;42.988;20.338;2022-10-16T04:32:53;21.65;;;14.70;;
70592;SDS011;58294;42.988;20.338;2022-10-16T04:35:19;33.65;;;13.88;;
70592;SDS011;58294;42.988;20.338;2022-10-16T04:37:46;37.92;;;12.65;;
70592;SDS011;58294;42.988;20.338;2022-10-16T04:40:12;27.02;;;12.15;;
70592;SDS011;58294;42.988;20.338;2022-10-16T04:42:38;27.95;;;12.15;;
70592;SDS011;58294;42.988;20.338;2022-10-16T04:45:05;26.80;;;12.90;;
70592;SDS011;58294;42.988;20.338;2022-10-16T04:47:31;34.05;;;14.23;;
70592;SDS011;58294;42.988;20.338;2022-10-16T04:49:57;31.33;;;12.98;;
70592;SDS011;58294;42.988;20.338;2022-10-16T04:52:26;42.95;;;15.95;;
70592;SDS011;58294;42.988;20.338;2022-10-16T04:54:52;30.40;;;12.63;;
70592;SDS011;58294;42.988;20.338;2022-10-16T04:57:18;22.50;;;11.23;;
70592;SDS011;58294;42.988;20.338;2022-10-16T04:59:44;17.10;;;10.63;;
70592;SDS011;58294;42.988;20.338;2022-10-16T05:02:10;16.20;;;9.77;;
70592;SDS011;58294;42.988;20.338;2022-10-16T05:04:36;20.20;;;10.80;;
70592;SDS011;58294;42.988;20.338;2022-10-16T05:07:02;19.83;;;9.80;;
70592;SDS011;58294;42.988;20.338;2022-10-16T05:09:27;19.77;;;10.40;;
70592;SDS011;58294;42.988;20.338;2022-10-16T05:11:53;31.58;;;11.82;;
70592;SDS011;58294;42.988;20.338;2022-10-16T05:14:19;20.50;;;12.65;;
70592;SDS011;58294;42.988;20.338;2022-10-16T05:16:45;17.08;;;10.30;;
70592;SDS011;58294;42.988;20.338;2022-10-16T05:19:12;19.20;;;10.40;;
70592;SDS011;58294;42.988;20.338;2022-10-16T05:21:38;15.95;;;9.45;;
70592;SDS011;58294;42.988;20.338;2022-10-16T05:24:04;13.20;;;8.85;;
70592;SDS011;58294;42.988;20.338;2022-10-16T05:26:30;27.63;;;10.77;;
70592;SDS011;58294;42.988;20.338;2022-10-16T05:28:56;13.55;;;9.77;;
70592;SDS011;58294;42.988;20.338;2022-10-16T05:31:22;18.63;;;11.13;;
70592;SDS011;58294;42.988;20.338;2022-10-16T05:33:47;18.23;;;11.43;;
70592;SDS011;58294;42.988;20.338;2022-10-16T05:36:13;21.15;;;12.38;;
70592;SDS011;58294;42.988;20.338;2022-10-16T05:38:39;26.40;;;11.82;;
70592;SDS011;58294;42.988;20.338;2022-10-16T05:41:05;22.20;;;12.13;;
70592;SDS011;58294;42.988;20.338;2022-10-16T05:43:31;23.45;;;12.02;;
70592;SDS011;58294;42.988;20.338;2022-10-16T05:45:58;22.73;;;14.05;;
70592;SDS011;58294;42.988;20.338;2022-10-16T05:48:31;31.73;;;17.77;;
70592;SDS011;58294;42.988;20.338;2022-10-16T05:50:58;28.00;;;14.35;;
70592;SDS011;58294;42.988;20.338;2022-10-16T05:53:29;30.33;;;16.15;;
70592;SDS011;58294;42.988;20.338;2022-10-16T05:55:57;38.25;;;14.68;;
70592;SDS011;58294;42.988;20.338;2022-10-16T05:58:23;26.23;;;12.55;;
70592;SDS011;58294;42.988;20.338;2022-10-16T06:00:53;40.45;;;16.13;;
70592;SDS011;58294;42.988;20.338;2022-10-16T06:03:27;18.75;;;11.50;;
70592;SDS011;58294;42.988;20.338;2022-10-16T06:05:53;22.67;;;13.20;;
70592;SDS011;58294;42.988;20.338;2022-10-16T06:08:19;19.73;;;11.75;;
70592;SDS011;58294;42.988;20.338;2022-10-16T06:10:48;24.75;;;12.23;;
70592;SDS011;58294;42.988;20.338;2022-10-16T06:13:14;21.50;;;12.73;;
70592;SDS011;58294;42.988;20.338;2022-10-16T06:15:41;27.95;;;15.23;;
70592;SDS011;58294;42.988;20.338;2022-10-16T06:18:08;17.95;;;11.80;;
70592;SDS011;58294;42.988;20.338;2022-10-16T06:20:34;21.90;;;11.95;;
70592;SDS011;58294;42.988;20.338;2022-10-16T06:23:01;14.88;;;12.38;;
70592;SDS011;58294;42.988;20.338;2022-10-16T06:25:27;24.92;;;14.38;;
70592;SDS011;58294;42.988;20.338;2022-10-16T06:27:52;33.42;;;13.98;;
70592;SDS011;58294;42.988;20.338;2022-10-16T06:30:18;26.83;;;14.10;;
70592;SDS011;58294;42.988;20.338;2022-10-16T06:32:44;27.27;;;13.43;;
70592;SDS011;58294;42.988;20.338;2022-10-16T06:35:10;16.67;;;12.30;;
70592;SDS011;58294;42.988;20.338;2022-10-16T06:37:35;16.95;;;12.30;;
70592;SDS011;58294;42.988;20.338;2022-10-16T06:40:01;16.13;;;11.68;;
70592;SDS011;58294;42.988;20.338;2022-10-16T06:42:29;25.00;;;13.68;;
70592;SDS011;58294;42.988;20.338;2022-10-16T06:44:55;20.30;;;13.02;;
70592;SDS011;58294;42.988;20.338;2022-10-16T06:47:21;18.38;;;13.75;;
70592;SDS011;58294;42.988;20.338;2022-10-16T06:49:47;20.38;;;14.55;;
70592;SDS011;58294;42.988;20.338;2022-10-16T06:52:13;27.13;;;15.00;;
70592;SDS011;58294;42.988;20.338;2022-10-16T06:54:38;19.80;;;13.75;;
70592;SDS011;58294;42.988;20.338;2022-10-16T06:57:04;26.48;;;15.02;;
70592;SDS011;58294;42.988;20.338;2022-10-16T06:59:30;19.90;;;15.15;;
70592;SDS011;58294;42.988;20.338;2022-10-16T07:01:56;20.60;;;14.57;;
70592;SDS011;58294;42.988;20.338;2022-10-16T07:04:22;28.85;;;17.98;;
70592;SDS011;58294;42.988;20.338;2022-10-16T07:06:47;26.85;;;17.45;;
70592;SDS011;58294;42.988;20.338;2022-10-16T07:09:13;35.92;;;22.70;;
70592;SDS011;58294;42.988;20.338;2022-10-16T07:11:39;28.08;;;19.92;;
70592;SDS011;58294;42.988;20.338;2022-10-16T07:14:11;39.35;;;24.23;;
70592;SDS011;58294;42.988;20.338;2022-10-16T07:16:41;41.50;;;23.42;;
70592;SDS011;58294;42.988;20.338;2022-10-16T07:19:07;31.92;;;22.25;;
70592;SDS011;58294;42.988;20.338;2022-10-16T07:21:34;29.13;;;20.23;;
70592;SDS011;58294;42.988;20.338;2022-10-16T07:24:00;23.13;;;18.58;;
70592;SDS011;58294;42.988;20.338;2022-10-16T07:26:28;24.38;;;19.65;;
70592;SDS011;58294;42.988;20.338;2022-10-16T07:28:55;32.85;;;21.17;;
70592;SDS011;58294;42.988;20.338;2022-10-16T07:31:22;28.65;;;19.70;;
70592;SDS011;58294;42.988;20.338;2022-10-16T07:33:48;24.42;;;18.25;;
70592;SDS011;58294;42.988;20.338;2022-10-16T07:36:15;28.75;;;21.85;;
70592;SDS011;58294;42.988;20.338;2022-10-16T07:38:42;23.67;;;16.05;;
70592;SDS011;58294;42.988;20.338;2022-10-16T07:41:13;31.17;;;19.85;;
70592;SDS011;58294;42.988;20.338;2022-10-16T07:43:45;23.45;;;18.15;;
70592;SDS011;58294;42.988;20.338;2022-10-16T07:46:12;27.58;;;19.77;;
70592;SDS011;58294;42.988;20.338;2022-10-16T07:48:39;28.50;;;20.27;;
70592;SDS011;58294;42.988;20.338;2022-10-16T07:51:05;32.38;;;20.05;;
70592;SDS011;58294;42.988;20.338;2022-10-16T07:53:32;26.23;;;19.27;;
70592;SDS011;58294;42.988;20.338;2022-10-16T07:55:59;29.55;;;20.60;;
70592;SDS011;58294;42.988;20.338;2022-10-16T07:58:29;25.02;;;19.75;;
70592;SDS011;58294;42.988;20.338;2022-10-16T08:00:56;23.38;;;18.05;;
70592;SDS011;58294;42.988;20.338;2022-10-16T08:03:23;26.77;;;21.42;;
70592;SDS011;58294;42.988;20.338;2022-10-16T08:05:49;39.00;;;23.42;;
70592;SDS011;58294;42.988;20.338;2022-10-16T08:08:16;27.50;;;19.85;;
70592;SDS011;58294;42.988;20.338;2022-10-16T08:10:43;25.92;;;21.40;;
70592;SDS011;58294;42.988;20.338;2022-10-16T08:13:10;31.40;;;22.80;;
70592;SDS011;58294;42.988;20.338;2022-10-16T08:15:36;30.92;;;24.15;;
70592;SDS011;58294;42.988;20.338;2022-10-16T08:18:03;29.58;;;22.50;;
70592;SDS011;58294;42.988;20.338;2022-10-16T08:20:30;43.15;;;27.95;;
70592;SDS011;58294;42.988;20.338;2022-10-16T08:22:56;37.10;;;27.27;;
70592;SDS011;58294;42.988;20.338;2022-10-16T08:25:23;34.13;;;24.30;;
70592;SDS011;58294;42.988;20.338;2022-10-16T08:27:49;28.17;;;20.27;;
70592;SDS011;58294;42.988;20.338;2022-10-16T08:30:16;22.35;;;19.33;;
70592;SDS011;58294;42.988;20.338;2022-10-16T08:32:43;25.75;;;20.35;;
70592;SDS011;58294;42.988;20.338;2022-10-16T08:35:10;29.23;;;24.10;;
70592;SDS011;58294;42.988;20.338;2022-10-16T08:37:36;22.30;;;19.77;;
70592;SDS011;58294;42.988;20.338;2022-10-16T08:40:03;26.77;;;22.42;;
70592;SDS011;58294;42.988;20.338;2022-10-16T08:48:05;33.53;;;20.05;;
70592;SDS011;58294;42.988;20.338;2022-10-16T08:50:33;40.67;;;35.88;;
70592;SDS011;58294;42.988;20.338;2022-10-16T08:53:03;41.28;;;33.03;;
70592;SDS011;58294;42.988;20.338;2022-10-16T08:58:10;35.05;;;29.05;;
70592;SDS011;58294;42.988;20.338;2022-10-16T09:00:39;45.28;;;31.77;;
70592;SDS011;58294;42.988;20.338;2022-10-16T09:06:26;36.92;;;31.27;;
70592;SDS011;58294;42.988;20.338;2022-10-16T09:09:00;38.13;;;28.63;;
70592;SDS011;58294;42.988;20.338;2022-10-16T09:11:47;36.85;;;27.75;;
70592;SDS011;58294;42.988;20.338;2022-10-16T09:23:00;29.35;;;23.77;;
70592;SDS011;58294;42.988;20.338;2022-10-16T09:25:38;34.20;;;23.45;;
70592;SDS011;58294;42.988;20.338;2022-10-16T09:28:07;35.78;;;24.58;;
70592;SDS011;58294;42.988;20.338;2022-10-16T09:30:34;25.15;;;18.80;;
70592;SDS011;58294;42.988;20.338;2022-10-16T09:33:00;25.02;;;19.27;;
70592;SDS011;58294;42.988;20.338;2022-10-16T09:35:36;21.92;;;19.55;;
70592;SDS011;58294;42.988;20.338;2022-10-16T09:38:08;21.52;;;19.27;;
70592;SDS011;58294;42.988;20.338;2022-10-16T09:40:38;22.48;;;17.88;;
70592;SDS011;58294;42.988;20.338;2022-10-16T09:45:58;20.95;;;18.83;;
70592;SDS011;58294;42.988;20.338;2022-10-16T09:48:39;21.95;;;17.73;;
70592;SDS011;58294;42.988;20.338;2022-10-16T09:51:26;20.80;;;17.58;;
70592;SDS011;58294;42.988;20.338;2022-10-16T09:53:57;24.88;;;17.13;;
70592;SDS011;58294;42.988;20.338;2022-10-16T09:56:29;24.30;;;21.55;;
70592;SDS011;58294;42.988;20.338;2022-10-16T09:58:58;18.35;;;15.65;;
70592;SDS011;58294;42.988;20.338;2022-10-16T10:01:38;13.80;;;12.35;;
70592;SDS011;58294;42.988;20.338;2022-10-16T10:04:06;18.40;;;11.50;;
70592;SDS011;58294;42.988;20.338;2022-10-16T10:06:34;11.20;;;10.10;;
70592;SDS011;58294;42.988;20.338;2022-10-16T10:09:28;12.13;;;10.93;;
70592;SDS011;58294;42.988;20.338;2022-10-16T10:11:59;15.88;;;14.20;;
70592;SDS011;58294;42.988;20.338;2022-10-16T10:14:28;19.92;;;15.77;;
70592;SDS011;58294;42.988;20.338;2022-10-16T10:19:50;20.25;;;15.38;;
70592;SDS011;58294;42.988;20.338;2022-10-16T10:22:22;12.35;;;11.23;;
70592;SDS011;58294;42.988;20.338;2022-10-16T10:30:40;11.30;;;10.20;;
70592;SDS011;58294;42.988;20.338;2022-10-16T10:33:37;11.13;;;9.52;;
70592;SDS011;58294;42.988;20.338;2022-10-16T10:44:15;12.43;;;11.13;;
70592;SDS011;58294;42.988;20.338;2022-10-16T10:53:40;20.17;;;10.80;;
70592;SDS011;58294;42.988;20.338;2022-10-16T10:55:44;9.75;;;8.75;;
70592;SDS011;58294;42.988;20.338;2022-10-16T11:01:10;9.77;;;8.00;;
70592;SDS011;58294;42.988;20.338;2022-10-16T11:06:17;7.85;;;6.15;;
70592;SDS011;58294;42.988;20.338;2022-10-16T11:08:57;8.90;;;6.68;;
70592;SDS011;58294;42.988;20.338;2022-10-16T11:11:47;10.90;;;8.10;;
70592;SDS011;58294;42.988;20.338;2022-10-16T11:14:22;10.52;;;8.35;;
70592;SDS011;58294;42.988;20.338;2022-10-16T11:17:10;12.23;;;7.75;;
70592;SDS011;58294;42.988;20.338;2022-10-16T11:22:43;8.00;;;5.95;;
70592;SDS011;58294;42.988;20.338;2022-10-16T11:25:22;6.82;;;5.13;;
70592;SDS011;58294;42.988;20.338;2022-10-16T11:30:33;8.30;;;6.22;;
70592;SDS011;58294;42.988;20.338;2022-10-16T11:33:25;9.27;;;5.55;;
70592;SDS011;58294;42.988;20.338;2022-10-16T11:36:12;6.88;;;6.07;;
70592;SDS011;58294;42.988;20.338;2022-10-16T11:39:03;13.48;;;6.13;;
70592;SDS011;58294;42.988;20.338;2022-10-16T11:41:45;9.13;;;5.88;;
70592;SDS011;58294;42.988;20.338;2022-10-16T11:44:27;15.40;;;6.72;;
70592;SDS011;58294;42.988;20.338;2022-10-16T11:49:52;6.18;;;4.93;;
70592;SDS011;58294;42.988;20.338;2022-10-16T11:52:42;7.30;;;5.22;;
70592;SDS011;58294;42.988;20.338;2022-10-16T11:55:20;7.20;;;5.68;;
70592;SDS011;58294;42.988;20.338;2022-10-16T11:57:53;6.63;;;5.90;;
70592;SDS011;58294;42.988;20.338;2022-10-16T12:00:25;13.55;;;6.53;;
70592;SDS011;58294;42.988;20.338;2022-10-16T12:08:39;6.75;;;6.05;;
70592;SDS011;58294;42.988;20.338;2022-10-16T12:11:07;7.53;;;5.40;;
70592;SDS011;58294;42.988;20.338;2022-10-16T12:13:48;10.20;;;6.53;;
70592;SDS011;58294;42.988;20.338;2022-10-16T12:18:40;5.93;;;5.32;;
70592;SDS011;58294;42.988;20.338;2022-10-16T12:21:08;9.85;;;5.07;;
70592;SDS011;58294;42.988;20.338;2022-10-16T12:23:38;7.88;;;5.53;;
70592;SDS011;58294;42.988;20.338;2022-10-16T12:26:13;6.78;;;5.13;;
70592;SDS011;58294;42.988;20.338;2022-10-16T12:28:39;6.85;;;5.47;;
70592;SDS011;58294;42.988;20.338;2022-10-16T12:31:06;5.60;;;5.05;;
70592;SDS011;58294;42.988;20.338;2022-10-16T12:33:35;6.82;;;5.15;;
70592;SDS011;58294;42.988;20.338;2022-10-16T12:36:06;14.10;;;6.65;;
70592;SDS011;58294;42.988;20.338;2022-10-16T12:38:47;8.63;;;6.20;;
70592;SDS011;58294;42.988;20.338;2022-10-16T12:41:24;10.65;;;6.78;;
70592;SDS011;58294;42.988;20.338;2022-10-16T12:43:54;10.85;;;6.95;;
70592;SDS011;58294;42.988;20.338;2022-10-16T12:51:41;11.77;;;7.47;;
70592;SDS011;58294;42.988;20.338;2022-10-16T13:01:52;11.98;;;7.80;;
70592;SDS011;58294;42.988;20.338;2022-10-16T13:04:27;11.50;;;6.40;;
70592;SDS011;58294;42.988;20.338;2022-10-16T13:07:13;9.05;;;6.15;;
70592;SDS011;58294;42.988;20.338;2022-10-16T13:24:15;6.40;;;5.13;;
70592;SDS011;58294;42.988;20.338;2022-10-16T13:26:57;14.80;;;6.32;;
70592;SDS011;58294;42.988;20.338;2022-10-16T13:29:31;13.43;;;6.72;;
70592;SDS011;58294;42.988;20.338;2022-10-16T13:31:59;5.78;;;5.10;;
70592;SDS011;58294;42.988;20.338;2022-10-16T13:34:31;11.50;;;6.60;;
70592;SDS011;58294;42.988;20.338;2022-10-16T13:36:57;8.45;;;6.45;;
70592;SDS011;58294;42.988;20.338;2022-10-16T13:39:24;7.60;;;5.22;;
70592;SDS011;58294;42.988;20.338;2022-10-16T13:42:36;7.20;;;5.32;;
70592;SDS011;58294;42.988;20.338;2022-10-16T13:44:44;8.25;;;6.50;;
70592;SDS011;58294;42.988;20.338;2022-10-16T13:47:26;8.40;;;6.47;;
70592;SDS011;58294;42.988;20.338;2022-10-16T13:50:00;11.98;;;8.00;;
70592;SDS011;58294;42.988;20.338;2022-10-16T13:52:31;15.30;;;6.53;;
70592;SDS011;58294;42.988;20.338;2022-10-16T13:54:57;6.32;;;5.57;;
70592;SDS011;58294;42.988;20.338;2022-10-16T13:57:24;6.65;;;5.32;;
70592;SDS011;58294;42.988;20.338;2022-10-16T13:59:50;8.32;;;5.75;;
70592;SDS011;58294;42.988;20.338;2022-10-16T14:02:21;9.32;;;5.35;;
70592;SDS011;58294;42.988;20.338;2022-10-16T14:04:48;7.32;;;5.43;;
70592;SDS011;58294;42.988;20.338;2022-10-16T14:07:15;8.05;;;5.90;;
70592;SDS011;58294;42.988;20.338;2022-10-16T14:09:48;18.20;;;7.38;;
70592;SDS011;58294;42.988;20.338;2022-10-16T14:12:16;10.60;;;5.70;;
70592;SDS011;58294;42.988;20.338;2022-10-16T14:14:46;14.35;;;6.53;;
70592;SDS011;58294;42.988;20.338;2022-10-16T14:17:14;9.30;;;7.45;;
70592;SDS011;58294;42.988;20.338;2022-10-16T14:19:46;7.50;;;6.68;;
70592;SDS011;58294;42.988;20.338;2022-10-16T14:22:23;13.52;;;8.20;;
70592;SDS011;58294;42.988;20.338;2022-10-16T14:27:45;15.40;;;7.85;;
70592;SDS011;58294;42.988;20.338;2022-10-16T14:30:22;6.10;;;5.50;;
70592;SDS011;58294;42.988;20.338;2022-10-16T14:33:01;8.15;;;5.07;;
70592;SDS011;58294;42.988;20.338;2022-10-16T14:35:44;10.68;;;7.10;;
70592;SDS011;58294;42.988;20.338;2022-10-16T14:38:17;10.60;;;7.47;;
70592;SDS011;58294;42.988;20.338;2022-10-16T14:40:46;11.02;;;7.07;;
70592;SDS011;58294;42.988;20.338;2022-10-16T14:43:31;12.82;;;7.63;;
70592;SDS011;58294;42.988;20.338;2022-10-16T14:45:59;10.25;;;7.30;;
70592;SDS011;58294;42.988;20.338;2022-10-16T14:48:27;14.32;;;8.23;;
70592;SDS011;58294;42.988;20.338;2022-10-16T14:50:53;14.90;;;6.93;;
70592;SDS011;58294;42.988;20.338;2022-10-16T14:53:19;11.48;;;7.00;;
70592;SDS011;58294;42.988;20.338;2022-10-16T14:55:44;8.82;;;4.70;;
70592;SDS011;58294;42.988;20.338;2022-10-16T14:58:18;7.75;;;4.95;;
70592;SDS011;58294;42.988;20.338;2022-10-16T15:00:46;5.95;;;5.35;;
70592;SDS011;58294;42.988;20.338;2022-10-16T15:03:12;7.40;;;6.43;;
70592;SDS011;58294;42.988;20.338;2022-10-16T15:05:38;6.75;;;5.00;;
70592;SDS011;58294;42.988;20.338;2022-10-16T15:08:04;4.75;;;4.35;;
70592;SDS011;58294;42.988;20.338;2022-10-16T15:10:31;8.73;;;6.45;;
70592;SDS011;58294;42.988;20.338;2022-10-16T15:13:00;7.68;;;5.90;;
70592;SDS011;58294;42.988;20.338;2022-10-16T15:18:03;7.72;;;5.80;;
70592;SDS011;58294;42.988;20.338;2022-10-16T15:20:32;15.23;;;7.55;;
70592;SDS011;58294;42.988;20.338;2022-10-16T15:23:04;9.38;;;7.72;;
70592;SDS011;58294;42.988;20.338;2022-10-16T15:28:00;12.60;;;9.98;;
70592;SDS011;58294;42.988;20.338;2022-10-16T15:30:27;12.18;;;10.10;;
70592;SDS011;58294;42.988;20.338;2022-10-16T15:32:53;12.23;;;9.60;;
70592;SDS011;58294;42.988;20.338;2022-10-16T15:35:19;21.58;;;13.48;;
70592;SDS011;58294;42.988;20.338;2022-10-16T15:37:46;34.10;;;20.02;;
70592;SDS011;58294;42.988;20.338;2022-10-16T15:40:13;74.25;;;26.85;;
70592;SDS011;58294;42.988;20.338;2022-10-16T15:42:40;69.72;;;32.97;;
70592;SDS011;58294;42.988;20.338;2022-10-16T15:45:06;80.55;;;47.15;;
70592;SDS011;58294;42.988;20.338;2022-10-16T15:47:32;70.13;;;40.47;;
70592;SDS011;58294;42.988;20.338;2022-10-16T15:49:58;84.03;;;38.20;;
70592;SDS011;58294;42.988;20.338;2022-10-16T15:52:24;99.35;;;44.92;;
70592;SDS011;58294;42.988;20.338;2022-10-16T15:54:49;67.32;;;36.67;;
70592;SDS011;58294;42.988;20.338;2022-10-16T15:57:15;55.38;;;36.40;;
70592;SDS011;58294;42.988;20.338;2022-10-16T15:59:41;56.53;;;39.53;;
70592;SDS011;58294;42.988;20.338;2022-10-16T16:02:08;59.28;;;35.88;;
70592;SDS011;58294;42.988;20.338;2022-10-16T16:04:34;60.22;;;36.08;;
70592;SDS011;58294;42.988;20.338;2022-10-16T16:07:00;61.92;;;44.30;;
70592;SDS011;58294;42.988;20.338;2022-10-16T16:09:28;65.18;;;44.50;;
70592;SDS011;58294;42.988;20.338;2022-10-16T16:11:54;67.68;;;54.38;;
70592;SDS011;58294;42.988;20.338;2022-10-16T16:14:20;69.43;;;44.08;;
70592;SDS011;58294;42.988;20.338;2022-10-16T16:16:46;103.82;;;57.15;;
70592;SDS011;58294;42.988;20.338;2022-10-16T16:19:12;76.15;;;47.97;;
70592;SDS011;58294;42.988;20.338;2022-10-16T16:21:38;46.78;;;34.15;;
70592;SDS011;58294;42.988;20.338;2022-10-16T16:24:04;56.75;;;37.15;;
70592;SDS011;58294;42.988;20.338;2022-10-16T16:26:33;58.53;;;39.05;;